Time;durP1;ratioP1;P1;durP2;ratioP2;P2;SDS_P1;SDS_P2;PMS_P1;PMS_P2;Temp;Humidity;BMP_temperature;BMP_pressure;BME280_temperature;BME280_humidity;BME280_pressure;Samples;Min_cycle;Max_cycle;Signal;HPM_P1;HPM_P2
2023/12/27 00:03:43;;;;;;;0.67;0.20;;;6.30;99.90;;;;;;2602749;54;20873;31
2023/12/27 00:06:21;;;;;;;1.55;0.32;;;6.20;99.90;;;;;;2620459;46;20901;31
2023/12/27 00:08:56;;;;;;;2.05;0.20;;;6.10;99.90;;;;;;2602780;54;20053;31
2023/12/27 00:11:31;;;;;;;0.20;0.08;;;6.10;99.90;;;;;;2620948;46;20774;31
2023/12/27 00:14:09;;;;;;;0.53;0.17;;;6.10;99.90;;;;;;2621177;46;20107;31
2023/12/27 00:16:45;;;;;;;0.60;0.20;;;6.10;99.90;;;;;;2602598;54;20913;31
2023/12/27 00:19:20;;;;;;;0.25;0.10;;;6.00;99.90;;;;;;2602781;54;20057;31
2023/12/27 00:21:55;;;;;;;5.13;0.30;;;6.00;99.90;;;;;;2602667;54;20773;31
2023/12/27 00:24:30;;;;;;;0.25;0.10;;;6.00;99.90;;;;;;2620777;46;20254;31
2023/12/27 00:27:06;;;;;;;0.60;0.10;;;5.90;99.90;;;;;;2602655;54;20026;31
2023/12/27 00:29:44;;;;;;;0.80;0.10;;;5.90;99.90;;;;;;2602484;54;20068;31
2023/12/27 00:32:18;;;;;;;0.90;0.20;;;6.00;99.90;;;;;;2701129;39;20560;31
2023/12/27 00:34:53;;;;;;;1.75;0.20;;;5.90;99.90;;;;;;2602464;54;20864;31
2023/12/27 00:37:28;;;;;;;0.20;0.05;;;5.90;99.90;;;;;;2602490;54;20577;31
2023/12/27 00:40:03;;;;;;;0.70;0.15;;;5.80;99.90;;;;;;2602738;54;20909;31
2023/12/27 00:42:38;;;;;;;0.35;0.10;;;5.70;99.90;;;;;;2602887;54;20875;31
2023/12/27 00:45:16;;;;;;;1.48;0.45;;;5.70;99.90;;;;;;2602609;54;20049;31
2023/12/27 00:47:51;;;;;;;2.00;0.50;;;5.70;99.90;;;;;;2602755;54;20834;31
2023/12/27 00:50:26;;;;;;;1.58;0.13;;;5.70;99.90;;;;;;2719518;39;20479;31
2023/12/27 00:53:01;;;;;;;0.55;0.20;;;5.70;99.90;;;;;;2602742;54;20880;31
2023/12/27 00:55:36;;;;;;;1.63;0.30;;;5.70;99.90;;;;;;2602417;54;20679;31
2023/12/27 00:58:11;;;;;;;2.38;1.10;;;5.70;99.90;;;;;;2602575;54;20033;31
2023/12/27 01:00:51;;;;;;;1.70;0.10;;;5.70;99.90;;;;;;2602514;54;20877;31
2023/12/27 01:03:26;;;;;;;0.95;0.20;;;5.70;99.90;;;;;;2602576;54;20049;31
2023/12/27 01:06:01;;;;;;;0.30;0.10;;;5.70;99.90;;;;;;2602535;54;20033;31
2023/12/27 01:08:36;;;;;;;3.45;0.30;;;5.60;99.90;;;;;;2700876;39;20505;31
2023/12/27 01:11:11;;;;;;;0.70;0.10;;;5.60;99.90;;;;;;2602330;54;20098;31
2023/12/27 01:13:46;;;;;;;1.05;0.30;;;5.60;99.90;;;;;;2602431;54;20030;31
2023/12/27 01:16:24;;;;;;;2.50;0.25;;;5.60;99.90;;;;;;2602700;54;20034;31
2023/12/27 01:18:59;;;;;;;2.78;0.28;;;5.50;99.90;;;;;;2602676;54;20557;31
2023/12/27 01:21:34;;;;;;;1.05;0.40;;;5.40;99.90;;;;;;2602429;54;20090;31
2023/12/27 01:24:09;;;;;;;0.50;0.27;;;5.40;99.90;;;;;;2602424;54;20243;31
2023/12/27 01:26:44;;;;;;;0.80;0.20;;;5.40;99.90;;;;;;2621230;47;20769;31
2023/12/27 01:29:19;;;;;;;1.25;0.20;;;5.40;99.90;;;;;;2620734;47;20030;31
2023/12/27 01:31:57;;;;;;;3.00;0.20;;;5.30;99.90;;;;;;2602392;54;21469;31
2023/12/27 01:34:31;;;;;;;1.08;0.20;;;5.30;99.90;;;;;;2620660;47;20812;31
2023/12/27 01:37:11;;;;;;;1.30;0.30;;;5.20;99.90;;;;;;2602139;54;20026;31
2023/12/27 01:39:45;;;;;;;2.45;0.30;;;5.20;99.90;;;;;;2602270;54;20781;31
2023/12/27 01:42:20;;;;;;;0.43;0.13;;;5.20;99.90;;;;;;2602501;54;20941;31
2023/12/27 01:44:55;;;;;;;1.23;0.20;;;5.10;99.90;;;;;;2602634;54;20054;31
2023/12/27 01:47:33;;;;;;;2.88;0.57;;;5.10;99.90;;;;;;2603433;54;21339;31
2023/12/27 01:50:10;;;;;;;1.20;0.40;;;5.00;99.90;;;;;;2603135;54;20101;31
2023/12/27 01:52:44;;;;;;;1.30;0.20;;;5.00;99.90;;;;;;2603221;54;20853;31
2023/12/27 01:55:19;;;;;;;1.80;0.30;;;4.90;99.90;;;;;;2603328;54;21870;31
2023/12/27 01:57:54;;;;;;;2.30;0.43;;;4.90;99.90;;;;;;2621462;46;20577;31
2023/12/27 02:00:29;;;;;;;1.67;0.20;;;4.90;99.90;;;;;;2603235;54;20037;31
2023/12/27 02:03:07;;;;;;;1.35;0.30;;;4.80;99.90;;;;;;2603322;54;20904;31
2023/12/27 02:05:42;;;;;;;1.15;0.20;;;4.80;99.90;;;;;;2701781;39;20382;31
2023/12/27 02:08:17;;;;;;;2.63;0.20;;;4.70;99.90;;;;;;2602981;54;20841;31
2023/12/27 02:10:54;;;;;;;2.00;0.27;;;4.70;99.90;;;;;;2621476;46;20145;31
2023/12/27 02:13:29;;;;;;;1.35;0.30;;;4.70;99.90;;;;;;2621737;46;21080;31
2023/12/27 02:16:04;;;;;;;2.03;0.75;;;4.70;99.90;;;;;;2621749;46;20037;31
2023/12/27 02:18:42;;;;;;;3.10;0.40;;;4.60;99.90;;;;;;2603071;54;20085;31
2023/12/27 02:21:16;;;;;;;1.20;0.25;;;4.70;99.90;;;;;;2602984;54;20034;31
2023/12/27 02:23:52;;;;;;;3.33;0.50;;;4.60;99.90;;;;;;2602952;54;20900;31
2023/12/27 02:26:30;;;;;;;2.95;0.40;;;4.60;99.90;;;;;;2602953;54;20132;31
2023/12/27 02:29:06;;;;;;;1.40;0.28;;;4.50;99.90;;;;;;2603269;54;20821;31
2023/12/27 02:31:41;;;;;;;3.67;0.40;;;4.50;99.90;;;;;;2603001;54;20023;31
2023/12/27 02:34:16;;;;;;;0.80;0.20;;;4.50;99.90;;;;;;2621346;46;20805;31
2023/12/27 02:36:51;;;;;;;1.50;0.65;;;4.50;99.90;;;;;;2603195;54;20057;31
2023/12/27 02:39:26;;;;;;;2.40;0.40;;;4.50;99.90;;;;;;2603075;54;20840;31
2023/12/27 02:42:06;;;;;;;1.17;0.10;;;4.50;99.90;;;;;;2603083;54;20230;31
2023/12/27 02:44:40;;;;;;;4.20;1.10;;;4.50;99.90;;;;;;2603147;54;20142;31
2023/12/27 02:47:15;;;;;;;3.73;0.27;;;4.40;99.90;;;;;;2621787;46;20030;31
2023/12/27 02:49:53;;;;;;;0.37;0.07;;;4.40;99.90;;;;;;2621380;46;20230;31
2023/12/27 02:52:27;;;;;;;1.00;0.30;;;4.50;99.90;;;;;;2602943;54;20030;31
2023/12/27 02:55:00;;;;;;;2.42;0.30;;;4.40;99.90;;;;;;2620842;46;20023;31
2023/12/27 02:57:37;;;;;;;2.28;0.13;;;4.40;99.90;;;;;;2602730;54;20026;31
2023/12/27 03:00:13;;;;;;;3.65;0.50;;;4.50;99.90;;;;;;2603114;54;20846;31
2023/12/27 03:02:48;;;;;;;4.35;0.40;;;4.50;99.90;;;;;;2602934;54;20830;31
2023/12/27 03:05:21;;;;;;;2.37;0.20;;;4.40;99.90;;;;;;2621235;46;22341;31
2023/12/27 03:07:56;;;;;;;1.27;0.20;;;4.40;99.90;;;;;;2603014;54;20897;31
2023/12/27 03:10:31;;;;;;;1.63;0.30;;;4.40;99.90;;;;;;2603072;54;20251;31
2023/12/27 03:13:08;;;;;;;2.10;0.20;;;4.40;99.90;;;;;;2602962;54;20887;31
2023/12/27 03:15:42;;;;;;;4.88;0.52;;;4.50;99.90;;;;;;2603072;54;20121;31
2023/12/27 03:18:17;;;;;;;3.00;0.60;;;4.40;99.90;;;;;;2602952;54;20842;31
2023/12/27 03:20:52;;;;;;;5.20;0.52;;;4.40;99.90;;;;;;2602953;54;20846;31
2023/12/27 03:23:27;;;;;;;8.13;0.70;;;4.40;99.90;;;;;;2603103;54;20042;31
2023/12/27 03:26:01;;;;;;;2.50;0.40;;;4.30;99.90;;;;;;2621333;46;20030;31
2023/12/27 03:28:38;;;;;;;3.67;0.30;;;4.30;99.90;;;;;;2602970;54;20036;31
2023/12/27 03:31:13;;;;;;;6.15;0.80;;;4.30;99.90;;;;;;2602186;54;20758;31
2023/12/27 03:33:48;;;;;;;3.73;0.23;;;4.20;99.90;;;;;;2602828;54;20030;31
2023/12/27 03:36:23;;;;;;;3.60;0.50;;;4.20;99.90;;;;;;2602829;54;20030;31
2023/12/27 03:38:58;;;;;;;5.63;0.50;;;4.10;99.90;;;;;;2603057;54;20030;31
2023/12/27 03:41:34;;;;;;;8.00;0.75;;;4.10;99.90;;;;;;2602802;54;20294;31
2023/12/27 03:44:12;;;;;;;3.65;0.68;;;4.00;99.90;;;;;;2603031;54;20026;31
2023/12/27 03:46:46;;;;;;;3.20;0.50;;;4.00;99.90;;;;;;2602870;54;20881;31
2023/12/27 03:49:21;;;;;;;2.97;0.45;;;4.00;99.90;;;;;;2602924;54;20916;31
2023/12/27 03:51:56;;;;;;;6.65;0.57;;;4.00;99.90;;;;;;2602866;54;20847;31
2023/12/27 03:54:31;;;;;;;7.40;0.63;;;4.00;99.90;;;;;;2602801;54;20969;31
2023/12/27 03:57:07;;;;;;;2.38;0.52;;;3.90;99.90;;;;;;2621326;46;20983;31
2023/12/27 03:59:44;;;;;;;6.28;0.80;;;3.90;99.90;;;;;;2621106;46;20103;31
2023/12/27 04:02:19;;;;;;;6.00;0.52;;;3.90;99.90;;;;;;2621613;46;20052;31
2023/12/27 04:04:54;;;;;;;6.95;0.57;;;3.90;99.90;;;;;;2602917;54;20030;31
2023/12/27 04:07:29;;;;;;;3.73;0.60;;;3.80;99.90;;;;;;2602866;54;20030;31
2023/12/27 04:10:04;;;;;;;2.83;0.20;;;3.80;99.90;;;;;;2602494;54;21218;31
2023/12/27 04:12:39;;;;;;;4.32;0.57;;;3.80;99.90;;;;;;2602600;54;20026;31
2023/12/27 04:15:17;;;;;;;2.63;0.57;;;3.90;99.90;;;;;;2602737;54;20031;31
2023/12/27 04:17:51;;;;;;;5.20;0.50;;;3.80;99.90;;;;;;2621199;46;20033;31
2023/12/27 04:20:23;;;;;;;2.35;0.38;;;3.80;99.90;;;;;;2621048;46;22214;31
2023/12/27 04:22:58;;;;;;;4.63;0.40;;;3.80;99.90;;;;;;2602884;54;20893;31
2023/12/27 04:25:33;;;;;;;2.40;0.60;;;3.80;99.90;;;;;;2602835;54;20870;31
2023/12/27 04:28:08;;;;;;;;;;;3.70;99.90;;;;;;2602680;54;20128;31
2023/12/27 04:30:45;;;;;;;2.80;0.60;;;3.70;99.90;;;;;;2602658;54;20473;31
2023/12/27 04:33:20;;;;;;;7.90;0.60;;;3.70;99.90;;;;;;2620995;46;20805;31
2023/12/27 04:35:55;;;;;;;2.17;0.40;;;3.70;99.90;;;;;;2602702;54;20476;31
2023/12/27 04:38:33;;;;;;;3.65;0.70;;;3.70;99.90;;;;;;2621256;46;20034;31
2023/12/27 04:41:10;;;;;;;5.55;0.93;;;3.70;99.90;;;;;;2602567;54;20863;31
2023/12/27 04:43:44;;;;;;;7.70;1.60;;;3.70;99.90;;;;;;2602517;54;20091;31
2023/12/27 04:46:22;;;;;;;7.30;1.50;;;3.60;99.90;;;;;;2602795;54;20821;31
2023/12/27 04:48:56;;;;;;;4.45;0.65;;;3.60;99.90;;;;;;2602514;54;20922;31
2023/12/27 04:51:31;;;;;;;6.57;0.77;;;3.60;99.90;;;;;;2602710;54;20023;31
2023/12/27 04:54:06;;;;;;;3.92;0.45;;;3.60;99.90;;;;;;2602695;54;21081;31
2023/12/27 04:56:41;;;;;;;5.90;0.60;;;3.60;99.90;;;;;;2602618;54;20892;31
2023/12/27 04:59:15;;;;;;;4.40;0.47;;;3.60;99.90;;;;;;2602614;54;20121;31
2023/12/27 05:01:53;;;;;;;3.03;0.43;;;3.50;99.90;;;;;;2602517;54;20022;31
2023/12/27 05:04:30;;;;;;;3.40;0.30;;;3.50;99.90;;;;;;2602638;54;20882;31
2023/12/27 05:07:05;;;;;;;3.80;0.50;;;3.50;99.90;;;;;;2602526;54;20788;31
2023/12/27 05:09:40;;;;;;;4.90;0.63;;;3.50;99.90;;;;;;2620967;47;20038;31
2023/12/27 05:12:14;;;;;;;2.72;0.85;;;3.50;99.90;;;;;;2602345;54;20249;31
2023/12/27 05:14:49;;;;;;;1.70;0.40;;;3.50;99.90;;;;;;2602534;54;20908;31
2023/12/27 05:17:27;;;;;;;7.35;0.95;;;3.50;99.90;;;;;;2602551;54;20026;31
2023/12/27 05:20:03;;;;;;;10.23;0.82;;;3.50;99.90;;;;;;2602763;54;20843;31
2023/12/27 05:22:39;;;;;;;3.60;0.37;;;3.40;99.90;;;;;;2603561;54;20053;31
2023/12/27 05:25:14;;;;;;;3.60;0.20;;;3.40;99.90;;;;;;2621735;46;20293;31
2023/12/27 05:27:49;;;;;;;1.92;0.40;;;3.40;99.90;;;;;;2701828;39;20506;31
2023/12/27 05:30:24;;;;;;;4.80;0.70;;;3.40;99.90;;;;;;2603343;54;20761;31
2023/12/27 05:33:02;;;;;;;4.57;0.73;;;3.40;99.90;;;;;;2603235;54;20048;31
2023/12/27 05:35:36;;;;;;;7.17;0.57;;;3.40;99.90;;;;;;2603309;54;20920;31
2023/12/27 05:38:10;;;;;;;4.57;0.30;;;3.40;99.90;;;;;;2603501;54;20921;31
2023/12/27 05:40:45;;;;;;;3.47;0.47;;;3.30;99.90;;;;;;2603126;54;20061;31
2023/12/27 05:43:20;;;;;;;4.43;0.85;;;3.40;99.90;;;;;;2622259;46;20872;31
2023/12/27 05:45:55;;;;;;;2.85;0.50;;;3.30;99.90;;;;;;2720187;39;21422;31
2023/12/27 05:48:32;;;;;;;2.35;0.50;;;3.30;99.90;;;;;;2603372;54;20896;31
2023/12/27 05:51:06;;;;;;;1.25;0.35;;;3.30;99.90;;;;;;2603254;54;20922;31
2023/12/27 05:53:41;;;;;;;2.97;0.52;;;3.30;99.90;;;;;;2602907;54;20053;31
2023/12/27 05:56:16;;;;;;;1.63;0.55;;;3.30;99.90;;;;;;2603312;54;20914;31
2023/12/27 05:58:53;;;;;;;5.40;0.80;;;3.30;99.90;;;;;;2603193;54;20776;31
2023/12/27 06:01:26;;;;;;;5.45;1.75;;;3.20;99.90;;;;;;2603398;54;20827;31
2023/12/27 06:04:06;;;;;;;7.30;1.23;;;3.20;99.90;;;;;;2603297;54;20858;31
2023/12/27 06:06:40;;;;;;;7.90;1.20;;;3.20;99.90;;;;;;2603196;54;20023;31
2023/12/27 06:09:15;;;;;;;8.40;1.03;;;3.20;99.90;;;;;;2621630;46;20034;31
2023/12/27 06:11:50;;;;;;;8.40;1.25;;;3.20;99.90;;;;;;2603226;54;20748;31
2023/12/27 06:14:23;;;;;;;6.43;0.70;;;3.20;99.90;;;;;;2602753;54;20835;31
2023/12/27 06:16:58;;;;;;;5.38;0.68;;;3.20;99.90;;;;;;2602903;54;20234;31
2023/12/27 06:19:37;;;;;;;4.43;1.65;;;3.10;99.90;;;;;;2603354;54;20023;31
2023/12/27 06:22:12;;;;;;;8.77;1.55;;;3.10;99.90;;;;;;2603329;54;20053;31
2023/12/27 06:24:47;;;;;;;5.40;1.70;;;3.10;99.90;;;;;;2621544;46;20030;31
2023/12/27 06:27:22;;;;;;;8.27;1.77;;;3.10;99.90;;;;;;2603104;54;20919;31
2023/12/27 06:29:57;;;;;;;4.07;0.70;;;3.00;99.90;;;;;;2603052;54;20301;31
2023/12/27 06:32:32;;;;;;;3.72;1.63;;;3.00;99.90;;;;;;2602749;54;20042;31
2023/12/27 06:35:10;;;;;;;6.97;3.50;;;3.00;99.90;;;;;;2603173;54;20026;31
2023/12/27 06:37:44;;;;;;;14.30;4.33;;;3.00;99.90;;;;;;2603088;54;20896;31
2023/12/27 06:40:20;;;;;;;9.93;2.97;;;3.00;99.90;;;;;;2603174;54;20235;31
2023/12/27 06:42:55;;;;;;;7.45;1.77;;;3.00;99.90;;;;;;2602870;54;20027;31
2023/12/27 06:45:30;;;;;;;10.05;2.80;;;3.00;99.90;;;;;;2621852;46;20886;31
2023/12/27 06:48:06;;;;;;;2.45;1.17;;;2.90;99.90;;;;;;2603312;54;20885;31
2023/12/27 06:50:44;;;;;;;7.13;1.40;;;2.90;99.90;;;;;;2603229;54;20923;31
2023/12/27 06:53:19;;;;;;;9.55;2.70;;;2.90;99.90;;;;;;2602956;54;20031;31
2023/12/27 06:55:54;;;;;;;4.85;1.42;;;2.90;99.90;;;;;;2603336;54;20895;31
2023/12/27 06:58:28;;;;;;;9.05;2.35;;;2.90;99.90;;;;;;2603081;54;20034;31
2023/12/27 07:01:03;;;;;;;5.97;1.50;;;2.90;99.90;;;;;;2603022;54;20053;31
2023/12/27 07:03:38;;;;;;;4.70;1.17;;;2.90;99.90;;;;;;2602992;54;20030;31
2023/12/27 07:06:17;;;;;;;6.30;0.90;;;2.90;99.90;;;;;;2603199;54;20879;31
2023/12/27 07:08:52;;;;;;;3.55;1.00;;;2.90;99.90;;;;;;2602982;54;20761;31
2023/12/27 07:11:28;;;;;;;3.57;0.83;;;2.90;99.90;;;;;;2602981;54;20486;31
2023/12/27 07:14:03;;;;;;;4.18;0.80;;;2.90;99.90;;;;;;2621387;46;20046;31
2023/12/27 07:16:39;;;;;;;5.20;0.67;;;2.90;99.90;;;;;;2621247;46;20030;31
2023/12/27 07:19:16;;;;;;;6.38;1.52;;;2.90;99.90;;;;;;2610125;46;21280;31
2023/12/27 07:21:54;;;;;;;4.13;0.83;;;2.90;99.90;;;;;;2602771;54;20589;31
2023/12/27 07:24:30;;;;;;;2.13;0.57;;;2.90;99.90;;;;;;2602847;54;21625;31
2023/12/27 07:27:06;;;;;;;5.50;1.00;;;2.90;99.90;;;;;;2602751;54;20053;31
2023/12/27 07:29:40;;;;;;;3.37;0.70;;;3.00;99.90;;;;;;2603136;54;20026;31
2023/12/27 07:32:16;;;;;;;5.17;1.00;;;3.30;99.90;;;;;;2602842;54;20484;31
2023/12/27 07:34:57;;;;;;;4.30;0.75;;;3.50;99.90;;;;;;2602580;54;20029;31
2023/12/27 07:37:35;;;;;;;4.97;0.82;;;3.70;99.90;;;;;;2602930;54;20812;31
2023/12/27 07:40:12;;;;;;;6.70;1.63;;;3.90;99.90;;;;;;2602760;54;20038;31
2023/12/27 07:42:48;;;;;;;5.90;1.50;;;4.30;99.90;;;;;;2602856;54;20057;31
2023/12/27 07:45:23;;;;;;;6.90;1.50;;;4.50;99.90;;;;;;2602668;54;20786;31
2023/12/27 07:47:58;;;;;;;5.53;1.67;;;4.90;99.90;;;;;;2602585;54;20030;31
2023/12/27 07:50:33;;;;;;;4.23;1.40;;;5.20;99.90;;;;;;2602802;54;20425;31
2023/12/27 07:53:11;;;;;;;5.95;0.95;;;5.70;96.90;;;;;;2602884;54;20030;31
2023/12/27 07:55:46;;;;;;;7.25;1.10;;;5.90;92.30;;;;;;2621107;46;20866;31
2023/12/27 07:58:21;;;;;;;4.10;0.95;;;6.10;90.20;;;;;;2602611;54;20106;31
2023/12/27 08:00:56;;;;;;;4.50;1.20;;;6.50;91.50;;;;;;2602487;54;20062;31
2023/12/27 08:03:31;;;;;;;6.35;1.58;;;6.60;81.60;;;;;;2621276;46;20052;31
2023/12/27 08:06:07;;;;;;;6.07;1.00;;;6.70;78.10;;;;;;2701369;39;20445;31
2023/12/27 08:08:46;;;;;;;4.05;1.40;;;6.80;87.60;;;;;;2602740;54;20038;31
2023/12/27 08:11:21;;;;;;;7.25;1.65;;;6.90;80.00;;;;;;2602730;54;20872;31
2023/12/27 08:13:56;;;;;;;6.83;1.43;;;6.80;72.90;;;;;;2621212;46;20110;31
2023/12/27 08:16:31;;;;;;;8.77;1.77;;;6.60;78.80;;;;;;2620901;46;20758;31
2023/12/27 08:19:06;;;;;;;4.80;1.40;;;6.40;77.50;;;;;;2602608;54;20030;31
2023/12/27 08:21:41;;;;;;;2.43;1.03;;;6.40;83.30;;;;;;2602991;54;20790;31
2023/12/27 08:24:19;;;;;;;3.00;0.97;;;6.60;78.40;;;;;;2602593;54;20776;31
2023/12/27 08:26:57;;;;;;;8.30;1.35;;;7.00;84.60;;;;;;2602662;54;20769;31
2023/12/27 08:29:32;;;;;;;4.30;1.10;;;7.30;73.60;;;;;;2602624;54;20068;31
2023/12/27 08:32:09;;;;;;;4.28;0.95;;;7.50;72.70;;;;;;2602471;54;20780;31
2023/12/27 08:34:43;;;;;;;8.35;1.10;;;7.60;60.50;;;;;;2602631;54;20037;31
2023/12/27 08:37:18;;;;;;;3.58;1.02;;;7.80;56.00;;;;;;2621043;46;20054;31
2023/12/27 08:39:57;;;;;;;7.28;1.48;;;8.00;59.00;;;;;;2602651;54;20042;31
2023/12/27 08:42:32;;;;;;;4.47;1.00;;;8.10;49.90;;;;;;2602410;54;20925;31
2023/12/27 08:45:08;;;;;;;6.57;1.02;;;8.30;67.60;;;;;;2602587;54;20234;31
2023/12/27 08:47:43;;;;;;;3.63;0.80;;;8.50;54.00;;;;;;2602366;54;20058;31
2023/12/27 08:50:18;;;;;;;9.13;1.17;;;8.70;49.00;;;;;;2620936;46;21256;31
2023/12/27 08:52:53;;;;;;;11.63;1.40;;;8.80;52.40;;;;;;2602520;54;20037;31
2023/12/27 08:55:29;;;;;;;5.00;1.30;;;8.80;47.10;;;;;;2621160;47;21825;31
2023/12/27 08:58:05;;;;;;;;;;;8.90;53.90;;;;;;2603166;54;20877;31
2023/12/27 09:00:40;;;;;;;5.85;0.90;;;8.90;47.00;;;;;;2621956;46;19957;31
2023/12/27 09:03:16;;;;;;;4.30;0.90;;;9.10;49.90;;;;;;2603348;54;20857;31
2023/12/27 09:05:51;;;;;;;4.67;1.27;;;9.20;49.60;;;;;;2603320;54;20936;31
2023/12/27 09:08:26;;;;;;;11.85;2.25;;;9.10;42.10;;;;;;2603098;54;20851;31
2023/12/27 09:11:04;;;;;;;5.55;1.50;;;9.10;47.00;;;;;;2603282;54;20757;31
2023/12/27 09:13:40;;;;;;;9.63;1.97;;;9.00;45.80;;;;;;2621407;46;20857;31
2023/12/27 09:16:15;;;;;;;4.07;1.23;;;9.10;45.90;;;;;;2602862;54;20926;31
2023/12/27 09:18:48;;;;;;;9.02;2.03;;;9.10;44.80;;;;;;2603318;54;21888;31
2023/12/27 09:21:24;;;;;;;6.90;2.22;;;9.00;45.30;;;;;;2603110;54;20620;31
2023/12/27 09:24:00;;;;;;;;;;;9.10;44.60;;;;;;2603232;54;20850;31
2023/12/27 09:26:37;;;;;;;11.70;2.97;;;9.10;47.30;;;;;;2603156;54;20791;31
2023/12/27 09:29:14;;;;;;;7.50;1.67;;;9.20;44.60;;;;;;2621794;46;20886;31
2023/12/27 09:31:49;;;;;;;;;;;9.20;43.20;;;;;;2603225;54;20683;31
2023/12/27 09:34:24;;;;;;;3.55;0.80;;;9.20;42.10;;;;;;2602749;54;20680;31
2023/12/27 09:37:03;;;;;;;4.50;1.35;;;9.20;70.60;;;;;;2602989;54;20909;31
2023/12/27 09:39:40;;;;;;;4.65;1.00;;;9.40;44.20;;;;;;2603021;54;20803;31
2023/12/27 09:42:21;;;;;;;5.68;0.90;;;9.50;40.10;;;;;;2603032;54;20823;31
2023/12/27 09:44:55;;;;;;;6.10;1.15;;;9.50;37.90;;;;;;2603057;54;20888;31
2023/12/27 09:47:30;;;;;;;6.20;1.30;;;9.40;38.00;;;;;;2603135;54;20089;31
2023/12/27 09:50:06;;;;;;;6.55;1.00;;;9.40;36.80;;;;;;2603311;54;20061;31
2023/12/27 09:52:42;;;;;;;7.82;1.20;;;9.50;40.70;;;;;;2602702;54;20877;31
2023/12/27 09:55:16;;;;;;;6.15;1.15;;;9.40;35.40;;;;;;2621027;46;20027;31
2023/12/27 09:57:55;;;;;;;4.28;1.15;;;9.40;35.30;;;;;;2602997;54;20030;31
2023/12/27 10:00:31;;;;;;;6.05;1.65;;;9.30;40.40;;;;;;2621753;46;21403;31
2023/12/27 10:03:07;;;;;;;10.27;2.70;;;9.20;40.00;;;;;;2621407;46;20030;31
2023/12/27 10:05:46;;;;;;;3.08;0.90;;;9.20;39.50;;;;;;2603077;54;20892;31
2023/12/27 10:08:21;;;;;;;6.23;1.20;;;8.90;35.40;;;;;;2603021;54;20022;31
2023/12/27 10:10:57;;;;;;;5.90;1.53;;;8.80;39.30;;;;;;2621733;46;20710;31
2023/12/27 10:13:35;;;;;;;4.22;0.93;;;8.80;41.40;;;;;;2621454;46;20831;31
2023/12/27 10:16:10;;;;;;;4.35;1.45;;;8.80;43.70;;;;;;2603003;54;20077;31
2023/12/27 10:18:48;;;;;;;5.10;1.70;;;8.70;42.70;;;;;;2701127;39;20500;31
2023/12/27 10:21:25;;;;;;;11.20;1.35;;;8.60;43.80;;;;;;2602827;54;20037;31
2023/12/27 10:24:06;;;;;;;5.17;0.93;;;8.60;46.30;;;;;;2602805;54;20113;31
2023/12/27 10:26:42;;;;;;;7.63;0.80;;;8.60;43.00;;;;;;2602904;54;20727;31
2023/12/27 10:29:21;;;;;;;7.50;0.95;;;8.50;43.00;;;;;;2602945;54;20058;31
2023/12/27 10:31:57;;;;;;;7.65;2.25;;;8.30;45.10;;;;;;2602824;54;20121;31
2023/12/27 10:34:33;;;;;;;9.25;1.70;;;8.20;50.60;;;;;;2621236;46;20089;31
2023/12/27 10:37:11;;;;;;;;;;;8.20;48.20;;;;;;2701275;39;20409;31
2023/12/27 10:42:35;;;;;;;7.38;1.30;;;8.30;52.20;;;;;;2603043;54;20109;31
2023/12/27 10:45:12;;;;;;;8.38;1.92;;;8.30;47.90;;;;;;2602729;54;20627;31
2023/12/27 10:47:49;;;;;;;4.18;0.98;;;8.20;45.40;;;;;;2602902;54;20031;31
2023/12/27 10:50:25;;;;;;;10.10;1.20;;;8.10;49.40;;;;;;2701511;39;21476;31
2023/12/27 10:53:04;;;;;;;4.20;0.90;;;8.10;48.90;;;;;;2602595;54;20839;31
2023/12/27 10:55:39;;;;;;;5.47;0.82;;;8.00;48.90;;;;;;2602930;54;20054;31
2023/12/27 10:58:18;;;;;;;9.65;1.60;;;7.90;50.00;;;;;;2602820;54;20786;31
2023/12/27 11:00:56;;;;;;;4.38;1.17;;;7.90;52.60;;;;;;2602877;54;20031;31
2023/12/27 11:03:33;;;;;;;7.97;1.63;;;7.80;54.60;;;;;;2603132;54;20836;31
2023/12/27 11:06:08;;;;;;;5.03;0.82;;;7.70;55.20;;;;;;2602970;54;20873;31
2023/12/27 11:08:43;;;;;;;7.43;1.00;;;7.80;56.70;;;;;;2621279;46;20037;31
2023/12/27 11:11:18;;;;;;;7.50;1.70;;;7.80;53.80;;;;;;2602906;54;20850;31
2023/12/27 11:13:53;;;;;;;5.03;1.00;;;7.80;51.10;;;;;;2621198;46;20049;31
2023/12/27 11:16:31;;;;;;;5.10;0.73;;;7.80;53.90;;;;;;2602529;54;20026;31
2023/12/27 11:19:07;;;;;;;5.00;1.00;;;7.70;61.40;;;;;;2621401;46;20934;31
2023/12/27 11:21:42;;;;;;;11.95;2.25;;;7.70;55.90;;;;;;2602664;54;20093;31
2023/12/27 11:24:18;;;;;;;9.63;1.20;;;7.70;55.80;;;;;;2621331;46;20917;31
2023/12/27 11:27:01;;;;;;;4.38;1.02;;;7.60;81.20;;;;;;2602606;54;20250;31
2023/12/27 11:29:37;;;;;;;8.05;1.55;;;8.00;87.10;;;;;;2602728;54;20110;31
2023/12/27 11:32:15;;;;;;;7.73;1.80;;;8.00;55.90;;;;;;2621233;46;20030;31
2023/12/27 11:34:50;;;;;;;6.30;1.45;;;7.90;58.70;;;;;;2602662;54;20858;31
2023/12/27 11:37:25;;;;;;;4.95;1.38;;;7.80;54.10;;;;;;2602865;54;20030;31
2023/12/27 11:39:59;;;;;;;9.50;2.33;;;7.70;54.70;;;;;;2602604;54;20034;31
2023/12/27 11:42:34;;;;;;;10.68;2.03;;;7.60;54.70;;;;;;2621267;46;20153;31
2023/12/27 11:45:09;;;;;;;10.37;1.23;;;7.40;58.90;;;;;;2602683;54;20085;31
2023/12/27 11:47:47;;;;;;;8.65;1.13;;;7.30;59.50;;;;;;2621581;46;20854;31
2023/12/27 11:53:18;;;;;;;4.93;1.40;;;7.20;59.30;;;;;;2602596;54;20026;31
2023/12/27 11:55:56;;;;;;;9.10;1.75;;;7.20;58.90;;;;;;2621037;46;20249;31
2023/12/27 11:58:35;;;;;;;88.15;12.15;;;7.10;57.40;;;;;;2616481;46;20037;31
2023/12/27 12:01:28;;;;;;;67.80;9.45;;;7.10;59.50;;;;;;2601991;54;20034;31
2023/12/27 12:07:22;;;;;;;23.70;4.38;;;7.10;55.00;;;;;;2610466;54;20026;31
2023/12/27 12:10:00;;;;;;;28.55;4.72;;;7.00;55.20;;;;;;2602612;54;20749;31
2023/12/27 12:12:36;;;;;;;84.85;9.65;;;6.90;56.50;;;;;;2621215;46;20037;31
2023/12/27 12:15:12;;;;;;;9.52;2.50;;;6.90;56.50;;;;;;2602694;54;20121;31
2023/12/27 12:17:48;;;;;;;33.33;5.70;;;6.80;58.00;;;;;;2602544;54;20034;31
2023/12/27 12:20:24;;;;;;;27.80;6.03;;;6.80;60.00;;;;;;2602642;54;20265;31
2023/12/27 12:23:00;;;;;;;29.48;5.22;;;6.80;58.70;;;;;;2602651;54;20876;31
2023/12/27 12:25:42;;;;;;;7.55;2.80;;;6.80;60.30;;;;;;2602559;54;20033;31
2023/12/27 12:28:17;;;;;;;100.15;17.35;;;6.70;61.30;;;;;;2620860;46;20857;31
2023/12/27 12:30:51;;;;;;;21.17;3.63;;;6.70;64.40;;;;;;2620080;46;20026;31
2023/12/27 12:33:29;;;;;;;8.68;1.38;;;6.60;66.10;;;;;;2602780;54;20026;31
2023/12/27 12:38:49;;;;;;;4.10;1.27;;;6.50;66.00;;;;;;2602615;54;21433;31
2023/12/27 12:41:27;;;;;;;20.15;2.75;;;6.50;69.30;;;;;;2602680;54;20100;31
2023/12/27 12:44:12;;;;;;;116.43;12.83;;;6.50;72.60;;;;;;2602474;54;20906;31
2023/12/27 12:46:50;;;;;;;16.25;2.92;;;6.50;72.40;;;;;;2602543;54;20243;31
2023/12/27 12:49:25;;;;;;;44.47;4.80;;;6.50;71.80;;;;;;2602395;54;20081;31
2023/12/27 12:52:06;;;;;;;24.65;2.30;;;6.40;69.20;;;;;;2602810;54;20081;31
2023/12/27 12:57:37;;;;;;;8.40;1.42;;;6.30;67.80;;;;;;2602294;54;20027;31
2023/12/27 13:00:15;;;;;;;106.60;15.60;;;6.40;67.80;;;;;;2602379;54;20027;31
2023/12/27 13:02:51;;;;;;;25.95;3.97;;;6.30;69.10;;;;;;2602802;54;20870;31
2023/12/27 13:08:26;;;;;;;7.90;1.90;;;6.30;72.00;;;;;;2602420;54;20496;31
2023/12/27 13:11:01;;;;;;;10.65;2.10;;;6.30;66.30;;;;;;2602356;54;20921;31
2023/12/27 13:13:39;;;;;;;7.23;1.47;;;6.30;69.70;;;;;;2602217;54;20027;31
2023/12/27 13:16:15;;;;;;;8.00;1.80;;;6.30;68.30;;;;;;2620792;47;20793;31
2023/12/27 13:27:38;;;;;;;9.00;1.90;;;6.20;68.80;;;;;;2602382;54;20840;31
2023/12/27 13:44:44;;;;;;;22.70;6.30;;;6.10;71.70;;;;;;2621571;46;20029;31
2023/12/27 13:47:19;;;;;;;22.88;5.53;;;6.00;71.90;;;;;;2602835;54;20030;31
2023/12/27 13:49:54;;;;;;;11.65;5.20;;;6.00;72.90;;;;;;2621699;46;20449;31
2023/12/27 13:52:29;;;;;;;39.88;7.95;;;6.00;71.70;;;;;;2621634;46;20829;31
2023/12/27 13:55:05;;;;;;;43.67;8.45;;;6.00;70.10;;;;;;2621838;46;20030;31
2023/12/27 13:57:41;;;;;;;87.40;12.05;;;6.00;70.70;;;;;;2602888;54;20082;31
2023/12/27 14:00:20;;;;;;;57.40;10.27;;;6.00;75.10;;;;;;2603134;54;20896;31
2023/12/27 14:02:55;;;;;;;69.93;11.10;;;5.90;75.80;;;;;;2602938;54;20912;31
2023/12/27 14:05:32;;;;;;;28.00;5.13;;;5.90;77.50;;;;;;2602890;54;20136;31
2023/12/27 14:08:08;;;;;;;16.90;4.22;;;5.90;72.70;;;;;;2602751;54;20056;31
2023/12/27 14:10:43;;;;;;;;;;;5.90;70.80;;;;;;2621751;46;20030;31
2023/12/27 14:13:18;;;;;;;19.17;5.50;;;5.90;69.80;;;;;;2602790;54;19941;31
2023/12/27 14:15:57;;;;;;;67.60;9.40;;;5.80;76.00;;;;;;2603208;54;20754;31
2023/12/27 14:18:32;;;;;;;20.08;5.22;;;5.80;78.80;;;;;;2602925;54;20027;31
2023/12/27 14:21:10;;;;;;;14.83;4.43;;;5.70;73.80;;;;;;2602902;54;20137;31
2023/12/27 14:23:43;;;;;;;13.02;4.72;;;5.70;75.70;;;;;;2603195;54;20027;31
2023/12/27 14:26:19;;;;;;;14.00;4.77;;;5.60;77.10;;;;;;2603069;54;20022;31
2023/12/27 14:28:55;;;;;;;16.80;5.80;;;5.50;78.40;;;;;;2603053;54;20785;31
2023/12/27 14:31:32;;;;;;;;;;;5.50;79.30;;;;;;2603188;54;20897;31
2023/12/27 14:34:10;;;;;;;12.52;4.68;;;5.40;79.40;;;;;;2621004;46;20342;31
2023/12/27 14:36:46;;;;;;;16.45;3.80;;;5.30;80.70;;;;;;2621367;46;20109;31